Weather at Papa Westray Airport

Public forecast

Using degrees Celsius for public forecast. Weather courtesy of forecast.io.

Closest aviation weather report (METAR) to Papa Westray Airport

Closest report is Kirkwall Airport, 23.7 nm (43.8 km) S. Retrieved 2020/12/01 07:20 UTC (0 seconds ago):

EGPA 010720Z 19006KT 9999 FEW032 04/02 Q1024

Closest aviation forecast (TAF) to Papa Westray Airport

Forecast is more than 12 hours old.

Closest forecast is Scatsta Airport, 80.9 nm (149.8 km) NE. Retrieved 2013/04/29 03:39 UTC (8 years ago):

TAF TAF EGPM 290337Z 2903/2915 22005KT 9999 SCT030 PROB30 TEMPO 2903/2906 7000 SHRAGS BECMG 2906/2909 32015KT PROB40 TEMPO 2906/2915 6000 SHRA SHGS BKN012CB